Accueil
METAR-TAF:

METAR-TAF

Aéroports :

Aéroport de Jersey

Jersey,

latitude: 49-13N, longitude: 002-12W, altitude: 84 m

Observation

Le bulletin a été fait il y a 27 minutes, à 03:20 UTC
Vent 5 kt de nord-est
Température 8°C
Humidité 81%
Pression 1019 hPa
Visibilité 10 km ou plus

METAR: EGJJ 240320Z AUTO 05005KT 9999 NCD 08/05 Q1019

Heure: 04:47 (03:47 UTC)

Prévision

Le bulletin a été fait il y a 1 heure et 49 minutes, à 01:58 UTC
Prévision valable du 24 à 03 UTC au 24 à 12 UTC
Vent 3 kt de direction variable
Visibilité 10 km ou plus
Quelques nuages à une hauteur de 2500 ft

TAF: EGJJ 240158Z 2403/2412 VRB03KT 9999 FEW025

Observations et prévisions météorologiques de plus de 4000 aéroports (messages METAR et TAF).

Les stations disponibles sont représentées par des disques jaunes et rouges sur la carte.

Passer la souris dessus pour voir le nom de la station.

Cliquer dessus pour voir les observations et prévisions météorologiques.

Pour changer de carte: cliquez sur les boutons verts avec une croix noire pour zoomer, sur le bouton vert avec un tiret pour effectuer un zoom arrière, ou sur les flèches vertes pour les cartes adjacentes.


METAR-TAF: